Stuttgart Echterdingen, Germania

12:36 PM CET del 27 Febbraio 2015 (GMT +0100)
Dach Firmengebauede | Change Station
CLOSE
Current Station
Stazione meteo personale
Location: Filderstadt, BADEN-WüRTTEMBERG
Altitudine: 1299 ft
Stazioni meteo nelle vicinanze

Alt. 1299 ft 48.66 °N, 9.20 °E | Updated 1 second ago

Light Rain
Pioggia leggera
36.7 °F
Sembra 37 °F
N
0.0
Vento Variabile Vento da SO
Gusts 0.0 mph

Oggi
Massima -- | Minima -- °F
--% Possibilità di precip.
Ieri
Massima -- | Minima -- °F
Precip. -- in
7:09 AM 6:02 PM
Gobba a ponente, 68% visible
Pressione 29.83 in
Visibilità 4.3 miglia
Nuvole Alcuni 400 ft
Nubi sparse 800 ft
Coperto 1400 ft
Raffreddamento del vento 37 °F
Punto di rugiada 35 °F
Umidità 93%
Piovosità 0.11 in
Spessore del manto nevoso Non disponibile.
Raggi UV 1.0 fuori da 12
Polline Non disponibile.
Qualità dell'aria Non disponibile.
Flu Activity Non disponibile.
METAR EDDS 271120Z 19001KT 7000 -RA FEW004 SCT008 OVC014 02/01 Q1010 RERA TEMPO 3000 RASN BKN010

More Conditions Fewer Conditions

Pressione 29.83 in
Visibilità 4.3 miglia
Nuvole Alcuni 400 ft
Nubi sparse 800 ft
Coperto 1400 ft
Raffreddamento del vento 37 °F
Punto di rugiada 35 °F
Umidità 93%
Piovosità 0.11 in
Spessore del manto nevoso Non disponibile.
Raggi UV 1.0 fuori da 12
Polline Non disponibile.
Qualità dell'aria Non disponibile.
Flu Activity Non disponibile.
METAR EDDS 271120Z 19001KT 7000 -RA FEW004 SCT008 OVC014 02/01 Q1010 RERA TEMPO 3000 RASN BKN010

More Conditions Fewer Conditions

10-Day Weather Forecast

Almanac

Astronomia

Feb. 27, 2015 Alba Tramonto
Ora attuale
Crepuscolo civile
Crepuscolo nautico
Crepuscolo astronomico
Luna
Estensione della luce visibile
Lunghezza del giorno
Tomorrow will be .
, % of the Moon is Illuminated

Gli estremi di oggi

Massime Regione Minime Regione

Community

WunderPhotos

Upload Photos

1,800,656 foto caricate!

WunderBlogs® & News

Nearby

Qualità dell'aria

  Qualità dell'aria Indice AQ Inquinante
Not available.

Profondità neve

Stazione Profondità Altitudine

Attività sismica

Città  Distanza Mag. Data & Ora
Minimo Magnitudo Mostrato è 2.5.

Temperature delle acque costiere

Località Temperatura

Stazioni meteo nelle vicinanze